Time;durP1;ratioP1;P1;durP2;ratioP2;P2;SDS_P1;SDS_P2;PMS_P1;PMS_P2;Temp;Humidity;BMP_temperature;BMP_pressure;BME280_temperature;BME280_humidity;BME280_pressure;Samples;Min_cycle;Max_cycle;Signal;HPM_P1;HPM_P2
2021/12/20 00:01:40;;;;;;;10.38;9.48;;;;;;;5.09;73.04;99539.09;4157072;28;20197;-46
2021/12/20 00:03:41;;;;;;;12.02;11.13;;;;;;;5.07;72.79;99544.69;4141957;28;20209;-46
2021/12/20 00:05:43;;;;;;;10.50;9.70;;;;;;;5.09;72.94;99530.97;4170379;28;20314;-46
2021/12/20 00:07:45;;;;;;;10.00;9.23;;;;;;;5.08;73.05;99524.69;4155966;28;20244;-46
2021/12/20 00:09:47;;;;;;;10.60;9.80;;;;;;;5.10;73.02;99525.31;4155135;28;20209;-46
2021/12/20 00:11:49;;;;;;;11.55;10.65;;;;;;;5.09;73.16;99525.53;4145314;28;20249;-46
2021/12/20 00:13:50;;;;;;;9.93;9.13;;;;;;;5.07;73.13;99517.56;4145115;28;20214;-46
2021/12/20 00:15:52;;;;;;;10.75;9.95;;;;;;;5.07;72.99;99524.84;4144321;28;20754;-45
2021/12/20 00:17:54;;;;;;;10.43;9.63;;;;;;;5.07;73.30;99515.91;4146526;28;20208;-46
2021/12/20 00:19:56;;;;;;;13.73;11.55;;;;;;;5.06;72.96;99523.19;4157069;28;20312;-46
2021/12/20 00:21:58;;;;;;;10.65;9.80;;;;;;;5.05;73.16;99518.78;4159487;28;20571;-46
2021/12/20 00:24:02;;;;;;;14.10;11.52;;;;;;;5.09;73.06;99520.09;4144742;28;20210;-46
2021/12/20 00:26:04;;;;;;;13.63;12.52;;;;;;;5.07;73.13;99517.56;4175812;28;20228;-46
2021/12/20 00:28:06;;;;;;;13.40;12.30;;;;;;;5.09;72.96;99510.06;4175381;28;20207;-46
2021/12/20 00:30:09;;;;;;;12.75;11.75;;;;;;;5.07;73.16;99500.44;4145016;28;20240;-46
2021/12/20 00:32:11;;;;;;;13.73;12.52;;;;;;;5.07;72.94;99507.75;4146263;28;20225;-46
2021/12/20 00:34:13;;;;;;;11.93;10.88;;;;;;;5.17;72.61;99501.00;4172413;28;20343;-46
2021/12/20 00:36:21;;;;;;;10.13;9.32;;;;;;;5.10;72.80;99497.38;4161351;28;20865;-46
2021/12/20 00:40:43;;;;;;;11.18;10.18;;;;;;;5.04;72.78;99498.13;4157447;28;20215;-46
2021/12/20 00:42:45;;;;;;;10.20;9.38;;;;;;;4.98;73.05;99501.59;4160360;28;20203;-46
2021/12/20 00:44:47;;;;;;;10.20;9.35;;;;;;;5.00;73.26;99499.53;4158958;28;20204;-45
2021/12/20 00:46:48;;;;;;;11.13;10.23;;;;;;;5.04;72.79;99503.56;4161817;28;20216;-46
2021/12/20 00:48:50;;;;;;;10.02;9.23;;;;;;;4.97;73.16;99508.06;4156430;28;20287;-45
2021/12/20 00:50:52;;;;;;;10.35;9.57;;;;;;;4.99;73.36;99497.84;4141561;28;20237;-46
2021/12/20 00:52:54;;;;;;;10.27;9.48;;;;;;;4.98;72.92;99501.59;4145535;28;20240;-46
2021/12/20 00:54:56;;;;;;;10.95;10.05;;;;;;;5.02;72.92;99507.47;4159521;28;20568;-46
2021/12/20 00:56:58;;;;;;;11.00;10.10;;;;;;;4.96;72.80;99498.25;4156385;28;20277;-46
2021/12/20 00:58:59;;;;;;;9.85;9.05;;;;;;;4.93;73.37;99504.03;4142781;28;20229;-46
2021/12/20 01:01:03;;;;;;;10.80;9.90;;;;;;;4.97;72.96;99497.22;4142848;28;20212;-46
2021/12/20 01:03:06;;;;;;;10.35;9.52;;;;;;;5.10;73.07;99494.66;4157898;28;20205;-46
2021/12/20 01:05:09;;;;;;;10.60;9.80;;;;;;;5.05;73.19;99491.66;4157925;28;20252;-46
2021/12/20 01:07:11;;;;;;;10.40;9.35;;;;;;;5.00;73.19;99499.53;4172824;28;20240;-45
2021/12/20 01:09:13;;;;;;;9.68;8.98;;;;;;;5.02;73.27;99493.94;4144176;28;20221;-46
2021/12/20 01:11:20;;;;;;;10.13;9.23;;;;;;;5.04;73.01;99490.00;4156228;28;20212;-46
2021/12/20 01:13:28;;;;;;;8.23;7.63;;;;;;;5.03;73.28;99494.56;4140681;28;20710;-47
2021/12/20 01:15:32;;;;;;;11.13;10.25;;;;;;;4.98;73.15;99474.47;4141778;28;20927;-46
2021/12/20 01:17:34;;;;;;;9.27;8.57;;;;;;;4.99;73.29;99487.00;4141568;28;20206;-46
2021/12/20 01:19:37;;;;;;;9.10;8.43;;;;;;;5.00;73.21;99477.84;4143971;28;20209;-46
2021/12/20 01:21:39;;;;;;;9.30;8.60;;;;;;;4.98;73.09;99479.91;4142513;28;20261;-46
2021/12/20 01:23:41;;;;;;;9.45;8.73;;;;;;;4.96;73.43;99486.56;4141260;28;20288;-46
2021/12/20 01:25:43;;;;;;;9.05;8.35;;;;;;;4.92;73.45;99483.38;4142974;28;20221;-46
2021/12/20 01:27:45;;;;;;;8.35;7.65;;;;;;;4.97;73.23;99484.47;4141483;28;20198;-46
2021/12/20 01:29:47;;;;;;;9.23;8.35;;;;;;;5.04;72.90;99481.84;4129382;28;20209;-46
2021/12/20 01:31:50;;;;;;;9.27;8.52;;;;;;;4.97;72.77;99482.81;4155683;28;20267;-46
2021/12/20 01:33:52;;;;;;;9.20;8.43;;;;;;;4.90;73.34;99469.19;4157902;28;20229;-46
2021/12/20 01:35:56;;;;;;;9.85;9.07;;;;;;;5.02;73.21;99481.22;4175138;28;20261;-45
2021/12/20 01:37:58;;;;;;;9.50;8.70;;;;;;;4.87;73.25;99482.28;4138300;28;20218;-46
2021/12/20 01:40:01;;;;;;;9.85;9.05;;;;;;;4.79;73.49;99480.50;4159148;28;20232;-45
2021/12/20 01:42:04;;;;;;;9.63;8.90;;;;;;;4.80;73.69;99482.19;4140972;28;20237;-47
2021/12/20 01:44:06;;;;;;;8.48;7.68;;;;;;;4.89;73.45;99486.47;4170992;28;20295;-46
2021/12/20 01:46:08;;;;;;;9.27;8.55;;;;;;;4.83;73.76;99476.41;4156868;28;20733;-46
2021/12/20 01:48:13;;;;;;;9.52;8.82;;;;;;;4.86;73.25;99475.19;4154206;28;20236;-46
2021/12/20 01:50:36;;;;;;;8.43;7.72;;;;;;;5.00;73.05;99475.13;4172471;28;20212;-45
2021/12/20 01:52:43;;;;;;;10.07;9.13;;;;;;;4.86;73.44;99476.00;4151738;28;20244;-46
2021/12/20 01:54:44;;;;;;;10.13;9.32;;;;;;;5.04;73.43;99473.72;4152274;28;20209;-45
2021/12/20 01:56:46;;;;;;;10.65;9.77;;;;;;;4.96;73.14;99479.28;4156620;28;20208;-45
2021/12/20 01:58:48;;;;;;;9.82;7.68;;;;;;;4.91;73.53;99479.00;4143013;28;20212;-46
2021/12/20 02:03:10;;;;;;;9.20;7.43;;;;;;;4.93;73.65;99482.34;4157337;28;20231;-47
2021/12/20 02:05:21;;;;;;;7.95;7.35;;;;;;;4.91;73.68;99480.84;4154724;28;20590;-46
2021/12/20 02:07:47;;;;;;;8.27;7.57;;;;;;;4.86;73.65;99480.59;4159554;28;20566;-47
2021/12/20 02:09:48;;;;;;;8.02;7.43;;;;;;;4.80;73.78;99481.38;4128222;28;20248;-47
2021/12/20 02:11:50;;;;;;;8.43;7.82;;;;;;;4.82;73.51;99477.44;4160393;28;20244;-46
2021/12/20 02:13:52;;;;;;;8.82;7.97;;;;;;;4.82;73.68;99491.00;4173442;28;20227;-46
2021/12/20 02:15:58;;;;;;;8.48;7.88;;;;;;;4.83;73.81;99479.09;4141769;28;20233;-46
2021/12/20 02:18:00;;;;;;;8.00;7.32;;;;;;;4.84;73.67;99477.22;4153503;28;20792;-46
2021/12/20 02:20:03;;;;;;;7.38;6.78;;;;;;;4.86;73.72;99481.44;4141087;28;20218;-46
2021/12/20 02:22:05;;;;;;;9.38;8.55;;;;;;;4.86;73.79;99476.00;4172510;28;20203;-46
2021/12/20 02:24:08;;;;;;;8.35;7.75;;;;;;;4.93;73.22;99466.06;4174373;28;20728;-46
2021/12/20 02:26:12;;;;;;;7.65;7.05;;;;;;;4.99;73.25;99470.72;4153983;28;20762;-46
2021/12/20 02:28:16;;;;;;;7.43;6.93;;;;;;;4.82;73.64;99474.72;4127474;28;20630;-46
2021/12/20 02:36:54;;;;;;;8.02;7.43;;;;;;;4.80;73.74;99470.50;4158213;28;21001;-47
2021/12/20 02:37:31;;;;;;;6.72;6.10;;;;;;;4.76;73.86;99459.22;4159359;28;20221;-48
2021/12/20 02:39:35;;;;;;;7.28;6.75;;;;;;;4.79;73.87;99444.44;4143878;28;20312;-47
2021/12/20 02:41:38;;;;;;;7.20;6.60;;;;;;;4.76;74.08;99448.38;4160024;28;20642;-47
2021/12/20 02:43:43;;;;;;;6.82;6.32;;;;;;;4.75;74.05;99453.97;4141992;28;20637;-46
2021/12/20 02:45:47;;;;;;;7.07;6.47;;;;;;;4.74;73.95;99447.69;4157432;28;20292;-47
2021/12/20 02:47:49;;;;;;;7.55;6.95;;;;;;;4.66;74.18;99453.22;4158520;28;20219;-47
2021/12/20 02:49:51;;;;;;;7.30;6.80;;;;;;;4.66;74.29;99452.41;4152961;28;20201;-48
2021/12/20 02:51:58;;;;;;;7.43;6.82;;;;;;;4.66;74.05;99453.22;4140391;28;20228;-47
2021/12/20 02:54:02;;;;;;;8.02;7.43;;;;;;;4.70;74.50;99451.84;4173224;28;20244;-47
2021/12/20 02:56:04;;;;;;;7.30;6.80;;;;;;;4.78;73.89;99450.88;4155676;28;21252;-48
2021/12/20 02:58:09;;;;;;;7.85;7.25;;;;;;;4.73;74.20;99447.91;4170973;28;20204;-49
2021/12/20 03:00:11;;;;;;;7.93;7.38;;;;;;;4.75;74.21;99443.13;4140577;28;20671;-48
2021/12/20 03:02:13;;;;;;;6.97;6.47;;;;;;;4.79;74.09;99447.97;4170667;28;20290;-47
2021/12/20 03:04:15;;;;;;;7.68;7.07;;;;;;;4.78;73.87;99453.56;4125824;28;20297;-48
2021/12/20 03:06:19;;;;;;;7.05;6.55;;;;;;;4.88;73.57;99460.38;4157078;28;20264;-45
2021/12/20 03:08:22;;;;;;;7.97;7.10;;;;;;;4.81;74.07;99462.16;4158220;28;20236;-47
2021/12/20 03:10:26;;;;;;;7.55;6.93;;;;;;;4.78;74.32;99456.28;4156942;28;20208;-48
2021/12/20 03:12:30;;;;;;;7.45;6.95;;;;;;;4.78;74.00;99457.13;4169463;28;20204;-47
2021/12/20 03:14:38;;;;;;;6.65;6.15;;;;;;;4.78;73.90;99453.56;4139134;28;20303;-47
2021/12/20 03:16:40;;;;;;;6.70;6.20;;;;;;;4.77;74.25;99455.47;4141412;28;20224;-46
2021/12/20 03:18:42;;;;;;;7.35;6.82;;;;;;;4.78;74.18;99457.13;4142785;28;20691;-45
2021/12/20 03:20:43;;;;;;;7.18;6.57;;;;;;;4.80;74.33;99448.81;4144741;28;20744;-45
2021/12/20 03:22:45;;;;;;;7.93;7.32;;;;;;;4.79;74.08;99452.56;4143560;28;20229;-45
2021/12/20 03:24:48;;;;;;;8.20;7.60;;;;;;;4.79;74.32;99453.41;4158292;28;20259;-48
2021/12/20 03:26:50;;;;;;;6.47;5.97;;;;;;;4.87;74.12;99449.75;4141213;28;20224;-46
2021/12/20 03:28:52;;;;;;;5.88;5.45;;;;;;;4.79;74.27;99450.69;4154276;28;20193;-47
2021/12/20 03:30:54;;;;;;;6.82;6.32;;;;;;;4.79;74.45;99445.25;4143856;28;20280;-48
2021/12/20 03:32:55;;;;;;;8.02;7.40;;;;;;;4.77;74.41;99450.03;4142983;28;20217;-48
2021/12/20 03:34:57;;;;;;;7.22;6.72;;;;;;;4.80;74.28;99455.06;4157160;28;20208;-48
2021/12/20 03:36:59;;;;;;;8.18;7.53;;;;;;;4.79;74.16;99447.97;4172582;28;20287;-45
2021/12/20 03:39:02;;;;;;;6.85;6.32;;;;;;;4.78;74.35;99453.56;4171428;28;20200;-45
2021/12/20 03:41:08;;;;;;;8.15;7.30;;;;;;;4.77;74.39;99450.03;4170705;28;20208;-45
2021/12/20 03:43:12;;;;;;;6.80;6.28;;;;;;;4.77;74.11;99454.63;4142968;28;20233;-49
2021/12/20 03:45:15;;;;;;;7.72;7.10;;;;;;;4.76;74.12;99458.34;4124073;28;20655;-48
2021/12/20 03:47:16;;;;;;;7.53;7.03;;;;;;;4.77;74.50;99450.03;4147031;28;20213;-48
2021/12/20 03:49:18;;;;;;;8.05;7.45;;;;;;;4.81;74.07;99445.91;4141671;28;20767;-48
2021/12/20 03:51:20;;;;;;;6.60;6.10;;;;;;;4.78;74.32;99451.72;4156955;28;20217;-45
2021/12/20 03:53:22;;;;;;;7.32;6.72;;;;;;;4.69;74.20;99442.03;4155688;28;20228;-50
2021/12/20 03:55:24;;;;;;;7.13;6.43;;;;;;;4.69;74.72;99441.19;4144737;28;20236;-46
2021/12/20 03:57:26;;;;;;;7.72;7.03;;;;;;;4.68;74.23;99445.75;4172493;28;20211;-45
2021/12/20 03:59:28;;;;;;;7.90;7.20;;;;;;;4.68;74.08;99440.31;4145552;28;20205;-45
2021/12/20 04:01:30;;;;;;;5.97;5.47;;;;;;;4.66;74.43;99436.97;4161170;28;20247;-46
2021/12/20 04:03:34;;;;;;;7.88;7.28;;;;;;;4.71;74.42;99445.38;4162584;28;20232;-45
2021/12/20 04:05:36;;;;;;;8.15;6.85;;;;;;;4.69;74.46;99446.59;4144950;28;20563;-46
2021/12/20 04:07:39;;;;;;;6.50;6.00;;;;;;;4.65;74.54;99439.88;4158862;28;20291;-45
2021/12/20 04:09:40;;;;;;;7.80;7.30;;;;;;;4.69;74.46;99436.59;4159017;28;20213;-48
2021/12/20 04:11:42;;;;;;;8.10;7.40;;;;;;;4.66;74.80;99436.97;4127476;28;20258;-48
2021/12/20 04:13:44;;;;;;;7.78;6.93;;;;;;;4.77;74.06;99436.50;4142965;28;20221;-46
2021/12/20 04:15:46;;;;;;;7.45;6.38;;;;;;;4.69;74.31;99441.19;4159582;28;20228;-45
2021/12/20 04:17:48;;;;;;;8.45;7.85;;;;;;;4.83;73.80;99446.56;4143965;28;20216;-47
2021/12/20 04:19:50;;;;;;;7.43;6.72;;;;;;;4.72;73.71;99447.06;4162696;28;20742;-48
2021/12/20 04:21:51;;;;;;;7.35;6.70;;;;;;;4.69;74.11;99439.31;4139290;28;20659;-47
2021/12/20 04:23:57;;;;;;;6.30;5.80;;;;;;;4.66;73.54;99436.97;4157780;28;20315;-47
2021/12/20 04:25:59;;;;;;;6.05;5.47;;;;;;;4.66;73.75;99431.56;4161247;28;20268;-49
2021/12/20 04:28:00;;;;;;;6.65;5.95;;;;;;;4.67;73.40;99433.22;4143396;28;20213;-48
2021/12/20 04:30:10;;;;;;;7.60;5.10;;;;;;;4.69;73.53;99442.03;4161442;28;20236;-48
2021/12/20 04:32:12;;;;;;;4.75;4.35;;;;;;;4.70;73.67;99430.16;4145701;28;20208;-46
2021/12/20 04:34:15;;;;;;;5.13;4.68;;;;;;;4.69;73.09;99436.59;4144316;28;20252;-48
2021/12/20 04:36:17;;;;;;;6.00;5.47;;;;;;;4.67;73.30;99435.94;4173668;28;20240;-52
2021/12/20 04:38:19;;;;;;;4.95;4.18;;;;;;;4.70;73.25;99435.56;4159810;28;20250;-46
2021/12/20 04:40:24;;;;;;;9.13;4.97;;;;;;;4.68;73.45;99440.31;4146027;28;20212;-46
2021/12/20 04:42:25;;;;;;;6.88;3.92;;;;;;;4.67;73.13;99430.50;4144959;28;20210;-46
2021/12/20 04:44:27;;;;;;;5.60;4.72;;;;;;;4.71;73.23;99428.25;4175699;28;20207;-46
2021/12/20 04:46:29;;;;;;;7.88;4.22;;;;;;;4.68;72.72;99428.66;4128084;28;20230;-46
2021/12/20 04:48:31;;;;;;;6.22;3.92;;;;;;;4.68;72.50;99434.91;4147819;28;20205;-46
2021/12/20 04:50:32;;;;;;;6.82;3.83;;;;;;;4.68;72.42;99434.91;4159712;28;20208;-46
2021/12/20 04:52:35;;;;;;;4.45;4.05;;;;;;;4.73;72.40;99432.47;4159316;28;20201;-47
2021/12/20 04:54:37;;;;;;;5.20;4.72;;;;;;;4.95;71.31;99442.34;4141744;28;21002;-46
2021/12/20 04:56:39;;;;;;;5.32;4.70;;;;;;;4.78;71.62;99435.47;4156810;28;20221;-47
2021/12/20 04:58:41;;;;;;;4.63;4.10;;;;;;;4.73;71.35;99429.75;4143486;28;20703;-46
2021/12/20 05:00:44;;;;;;;4.82;3.28;;;;;;;4.89;70.86;99429.53;4156032;28;20245;-46
2021/12/20 05:02:46;;;;;;;4.05;3.75;;;;;;;4.86;70.98;99432.63;4144204;28;20218;-45
2021/12/20 05:04:48;;;;;;;3.45;2.67;;;;;;;4.77;70.11;99432.94;4142979;28;20216;-46
2021/12/20 05:06:50;;;;;;;3.55;3.25;;;;;;;4.74;70.40;99436.84;4139141;28;20202;-46
2021/12/20 05:08:55;;;;;;;3.40;2.30;;;;;;;4.76;70.36;99437.53;4175245;28;20200;-46
2021/12/20 05:10:56;;;;;;;3.80;2.08;;;;;;;4.71;70.15;99429.13;4144267;28;20683;-45
2021/12/20 05:13:04;;;;;;;2.90;2.22;;;;;;;4.67;70.26;99435.94;4160533;28;20283;-46
2021/12/20 05:15:07;;;;;;;2.50;2.30;;;;;;;4.81;68.67;99435.06;4157408;28;20223;-46
2021/12/20 05:17:11;;;;;;;7.82;2.90;;;;;;;4.78;68.97;99435.47;4158005;28;20274;-46
2021/12/20 05:19:12;;;;;;;6.57;2.60;;;;;;;4.75;69.37;99440.41;4126433;28;20241;-46
2021/12/20 05:21:14;;;;;;;4.70;1.95;;;;;;;4.77;69.83;99432.94;4142527;28;20206;-46
2021/12/20 05:23:16;;;;;;;3.15;2.65;;;;;;;4.77;69.84;99432.94;4145202;28;20197;-46
2021/12/20 05:25:18;;;;;;;6.47;3.22;;;;;;;4.71;68.30;99434.53;4139060;28;20614;-49
2021/12/20 05:27:19;;;;;;;3.30;2.28;;;;;;;4.75;69.28;99430.44;4170825;28;20251;-46
2021/12/20 05:29:22;;;;;;;2.67;2.38;;;;;;;4.72;69.03;99436.22;4142524;28;20233;-46
2021/12/20 05:31:24;;;;;;;3.78;2.58;;;;;;;4.76;68.99;99432.09;4137267;28;20261;-46
2021/12/20 05:33:26;;;;;;;3.97;2.90;;;;;;;4.71;69.06;99437.25;4157590;28;20217;-45
2021/12/20 05:35:28;;;;;;;6.85;2.47;;;;;;;4.72;69.35;99438.94;4174528;28;20243;-45
2021/12/20 05:37:30;;;;;;;4.15;2.53;;;;;;;4.70;69.65;99443.72;4160047;28;20221;-47
2021/12/20 05:39:36;;;;;;;3.78;2.60;;;;;;;4.69;69.46;99442.03;4156922;28;20213;-47
2021/12/20 05:41:38;;;;;;;2.50;2.30;;;;;;;4.69;69.80;99435.75;4125592;28;20214;-48
2021/12/20 05:43:40;;;;;;;4.25;2.15;;;;;;;4.70;69.87;99432.88;4158638;28;20204;-46
2021/12/20 05:45:45;;;;;;;5.15;2.05;;;;;;;4.69;69.67;99441.19;4141751;28;20229;-48
2021/12/20 05:47:47;;;;;;;4.20;2.58;;;;;;;4.82;68.30;99442.19;4140379;28;20256;-49
2021/12/20 05:49:50;;;;;;;5.30;2.47;;;;;;;4.70;68.96;99440.13;4159637;28;20200;-46
2021/12/20 05:51:52;;;;;;;8.07;4.40;;;;;;;4.67;69.72;99449.50;4157708;28;20227;-48
2021/12/20 05:53:53;;;;;;;6.55;2.80;;;;;;;4.83;69.01;99443.88;4142679;28;20572;-46
2021/12/20 05:55:55;;;;;;;3.83;2.28;;;;;;;4.91;68.57;99448.31;4158512;28;20225;-47
2021/12/20 05:57:57;;;;;;;4.10;2.70;;;;;;;4.86;67.43;99453.50;4154330;28;20213;-46
2021/12/20 05:59:59;;;;;;;3.25;2.15;;;;;;;4.72;66.90;99460.63;4157945;28;20213;-48
2021/12/20 06:02:01;;;;;;;5.18;2.45;;;;;;;4.66;67.40;99457.84;4154214;28;20254;-45
2021/12/20 06:04:03;;;;;;;5.03;2.67;;;;;;;4.67;67.86;99463.03;4157187;28;20722;-48
2021/12/20 06:06:05;;;;;;;2.83;2.03;;;;;;;4.63;67.90;99464.47;4172439;28;20224;-46
2021/12/20 06:08:08;;;;;;;8.05;3.78;;;;;;;4.62;68.62;99462.78;4142446;28;20637;-46
2021/12/20 06:10:12;;;;;;;4.22;2.35;;;;;;;4.63;69.00;99458.19;4157145;28;20209;-47
2021/12/20 06:12:14;;;;;;;4.82;2.22;;;;;;;4.64;69.34;99463.44;4160717;28;20216;-46
2021/12/20 06:14:16;;;;;;;4.88;2.30;;;;;;;4.62;69.54;99462.78;4139448;28;20225;-48
2021/12/20 06:16:18;;;;;;;3.08;2.72;;;;;;;4.61;70.17;99471.94;4144724;28;20229;-48
2021/12/20 06:18:20;;;;;;;4.38;2.47;;;;;;;4.60;70.38;99462.13;4158139;28;20586;-46
2021/12/20 06:20:22;;;;;;;3.20;1.85;;;;;;;4.62;70.05;99465.50;4131034;28;20541;-46
2021/12/20 06:22:23;;;;;;;3.35;2.20;;;;;;;4.63;69.80;99466.31;4159628;28;20262;-48
2021/12/20 06:24:26;;;;;;;4.35;2.63;;;;;;;4.62;69.88;99457.38;4156528;28;20264;-47
2021/12/20 06:26:28;;;;;;;4.15;2.33;;;;;;;4.61;69.98;99466.50;4141786;28;20217;-46
2021/12/20 06:28:29;;;;;;;4.47;1.90;;;;;;;4.60;69.96;99469.44;4139094;28;20210;-48
2021/12/20 06:30:31;;;;;;;3.97;2.53;;;;;;;4.59;70.24;99468.56;4157012;28;20205;-48
2021/12/20 06:32:33;;;;;;;4.00;2.58;;;;;;;4.59;69.52;99468.56;4159490;28;20266;-46
2021/12/20 06:34:35;;;;;;;4.35;2.75;;;;;;;4.66;70.09;99474.91;4158736;28;20275;-45
2021/12/20 06:36:37;;;;;;;4.80;2.53;;;;;;;4.82;68.97;99473.88;4141226;28;20240;-46
2021/12/20 06:38:44;;;;;;;4.18;2.83;;;;;;;4.81;67.75;99473.00;4143144;28;20220;-49
2021/12/20 06:40:47;;;;;;;5.72;2.63;;;;;;;4.73;67.86;99470.41;4141474;28;20253;-46
2021/12/20 06:42:49;;;;;;;3.00;2.70;;;;;;;4.70;68.52;99476.22;4158080;28;20721;-46
2021/12/20 06:44:51;;;;;;;3.92;2.78;;;;;;;4.65;69.50;99464.25;4173582;28;20271;-46
2021/12/20 06:46:53;;;;;;;3.95;3.05;;;;;;;4.62;69.37;99470.94;4139199;28;20201;-46
2021/12/20 06:48:55;;;;;;;4.90;2.80;;;;;;;4.62;69.76;99468.22;4143768;28;20298;-48
2021/12/20 06:50:58;;;;;;;6.60;3.22;;;;;;;4.61;69.55;99471.09;4171492;28;20729;-46
2021/12/20 06:53:00;;;;;;;4.38;2.30;;;;;;;4.57;70.09;99476.06;4156898;28;20213;-46
2021/12/20 06:55:03;;;;;;;6.15;2.63;;;;;;;4.56;70.26;99474.38;4154680;28;20233;-46
2021/12/20 06:57:05;;;;;;;3.80;2.65;;;;;;;4.54;70.54;99479.13;4128779;28;20682;-45
2021/12/20 06:59:07;;;;;;;4.35;2.38;;;;;;;4.54;70.46;99476.41;4155500;28;20252;-47
2021/12/20 07:01:09;;;;;;;5.38;2.90;;;;;;;4.54;70.38;99475.59;4155419;28;20494;-45
2021/12/20 07:03:10;;;;;;;6.30;2.08;;;;;;;4.53;70.71;99474.75;4159318;28;20213;-45
2021/12/20 07:05:13;;;;;;;3.00;2.15;;;;;;;4.51;70.59;99475.97;4140902;28;20222;-46
2021/12/20 07:07:14;;;;;;;5.03;2.13;;;;;;;4.52;70.92;99473.06;4174426;28;20235;-47
2021/12/20 07:09:16;;;;;;;4.15;3.17;;;;;;;4.55;71.01;99471.84;4173134;28;20723;-47
2021/12/20 07:11:18;;;;;;;5.68;3.00;;;;;;;4.55;71.08;99475.41;4141345;28;20228;-46
2021/12/20 07:13:21;;;;;;;12.82;3.85;;;;;;;4.50;70.72;99469.72;4140639;28;20225;-47
2021/12/20 07:15:25;;;;;;;7.63;3.33;;;;;;;4.58;70.71;99483.16;4138249;28;20327;-49
2021/12/20 07:17:26;;;;;;;6.18;2.70;;;;;;;4.50;70.85;99480.56;4172840;28;20207;-47
2021/12/20 07:19:28;;;;;;;8.65;3.40;;;;;;;4.47;71.24;99489.03;4172834;28;20216;-47
2021/12/20 07:21:30;;;;;;;4.30;3.60;;;;;;;4.45;70.85;99493.81;4175562;28;20740;-48
2021/12/20 07:23:34;;;;;;;5.53;4.10;;;;;;;4.45;71.37;99499.25;4160556;28;20201;-47
2021/12/20 07:25:36;;;;;;;6.72;4.70;;;;;;;4.45;71.10;99482.13;4142685;28;20263;-48
2021/12/20 07:27:39;;;;;;;4.15;3.45;;;;;;;4.46;71.39;99490.06;4144143;28;20679;-47
2021/12/20 07:29:41;;;;;;;6.00;4.38;;;;;;;4.45;71.54;99492.97;4130145;28;20214;-47
2021/12/20 07:31:44;;;;;;;6.30;3.78;;;;;;;4.45;71.62;99488.41;4158487;28;20255;-48
2021/12/20 07:33:45;;;;;;;8.38;3.58;;;;;;;4.45;71.24;99504.66;4161819;28;20208;-48
2021/12/20 07:35:49;;;;;;;6.40;3.92;;;;;;;4.50;71.57;99491.41;4155880;28;20281;-47
2021/12/20 07:37:53;;;;;;;6.78;4.60;;;;;;;4.45;71.48;99487.53;4143582;28;20213;-48
2021/12/20 07:39:55;;;;;;;5.10;4.57;;;;;;;4.45;71.72;99491.09;4144386;28;20201;-47
2021/12/20 07:41:57;;;;;;;11.20;4.60;;;;;;;4.46;71.53;99497.38;4139940;28;20213;-47
2021/12/20 07:43:59;;;;;;;9.07;5.85;;;;;;;4.43;71.66;99495.88;4139451;28;20205;-47
2021/12/20 07:46:01;;;;;;;11.98;8.60;;;;;;;4.45;71.47;99499.25;4141992;28;20281;-47
2021/12/20 07:48:03;;;;;;;10.32;9.25;;;;;;;4.48;71.41;99504.28;4161045;28;20205;-47
2021/12/20 07:50:06;;;;;;;13.50;10.88;;;;;;;4.70;70.71;99508.75;4156601;28;20852;-49
2021/12/20 07:52:08;;;;;;;10.90;9.68;;;;;;;4.57;70.52;99505.88;4160932;28;20215;-46
2021/12/20 07:54:12;;;;;;;10.43;9.48;;;;;;;4.52;70.51;99507.44;4177093;28;20243;-47
2021/12/20 07:56:16;;;;;;;13.95;7.82;;;;;;;4.52;70.95;99505.59;4162614;28;20228;-47
2021/12/20 07:58:18;;;;;;;9.65;5.90;;;;;;;4.53;70.92;99507.28;4144424;28;20209;-48
2021/12/20 08:00:20;;;;;;;6.63;5.68;;;;;;;4.53;70.81;99499.13;4177239;28;20701;-47
2021/12/20 08:02:22;;;;;;;9.75;4.93;;;;;;;4.52;70.96;99511.00;4130444;28;20652;-47
2021/12/20 08:04:23;;;;;;;8.98;5.03;;;;;;;4.55;70.61;99507.94;4177283;28;20685;-47
2021/12/20 08:06:25;;;;;;;9.20;4.90;;;;;;;4.54;70.96;99506.22;4176341;28;20255;-48
2021/12/20 08:08:30;;;;;;;7.65;4.90;;;;;;;4.54;71.31;99503.53;4178403;28;20670;-47
2021/12/20 08:10:33;;;;;;;8.05;4.22;;;;;;;4.58;70.82;99504.84;4157700;28;20223;-48
2021/12/20 08:12:34;;;;;;;13.85;7.00;;;;;;;4.57;71.38;99508.59;4129203;28;20265;-47
2021/12/20 08:14:37;;;;;;;6.68;4.53;;;;;;;4.55;71.43;99510.66;4144881;28;20737;-47
2021/12/20 08:16:38;;;;;;;5.88;3.47;;;;;;;4.59;71.23;99511.94;4161851;28;20228;-47
2021/12/20 08:18:41;;;;;;;10.68;4.00;;;;;;;4.60;70.87;99513.63;4174475;28;20622;-48
2021/12/20 08:20:43;;;;;;;4.90;3.63;;;;;;;4.63;71.28;99509.69;4159495;28;20233;-47
2021/12/20 08:22:46;;;;;;;7.47;5.10;;;;;;;4.60;71.49;99510.91;4149428;28;20597;-47
2021/12/20 08:24:48;;;;;;;7.85;4.00;;;;;;;4.68;70.94;99510.81;4139418;28;20202;-47
2021/12/20 08:26:50;;;;;;;5.28;4.35;;;;;;;4.75;70.47;99516.31;4161943;28;20212;-47
2021/12/20 08:28:51;;;;;;;10.05;4.05;;;;;;;4.65;70.49;99527.44;4176144;28;20635;-47
2021/12/20 08:30:53;;;;;;;3.70;3.40;;;;;;;4.65;69.67;99516.63;4158257;28;20212;-47
2021/12/20 08:32:55;;;;;;;6.72;3.47;;;;;;;4.65;69.47;99524.75;4156241;28;20205;-48
2021/12/20 08:34:57;;;;;;;5.88;3.33;;;;;;;4.73;69.70;99530.06;4149717;28;20237;-46
2021/12/20 08:37:00;;;;;;;3.53;3.05;;;;;;;4.69;70.01;99530.63;4144782;28;20253;-48
2021/12/20 08:39:02;;;;;;;7.95;3.42;;;;;;;4.76;70.11;99524.28;4157916;28;20295;-49
2021/12/20 08:41:04;;;;;;;7.38;4.50;;;;;;;4.71;69.85;99521.28;4160017;28;20232;-48
2021/12/20 08:43:06;;;;;;;10.43;4.13;;;;;;;4.82;69.75;99528.94;4160125;28;20209;-46
2021/12/20 08:45:10;;;;;;;4.20;3.67;;;;;;;4.85;69.88;99528.56;4174472;28;20725;-48
2021/12/20 08:47:11;;;;;;;6.82;3.55;;;;;;;4.88;69.58;99538.19;4127138;28;20661;-47
2021/12/20 08:49:13;;;;;;;5.95;4.00;;;;;;;4.81;69.49;99538.09;4175235;28;20660;-47
2021/12/20 08:51:15;;;;;;;8.15;3.90;;;;;;;4.89;69.21;99538.00;4144193;28;20299;-46
2021/12/20 08:53:17;;;;;;;8.65;4.00;;;;;;;4.81;69.29;99532.66;4146543;28;20213;-47
2021/12/20 08:55:19;;;;;;;7.03;3.85;;;;;;;4.87;69.07;99531.91;4141720;28;20272;-46
2021/12/20 08:57:21;;;;;;;9.05;3.92;;;;;;;4.93;69.33;99531.16;4174824;28;20215;-46
2021/12/20 08:59:23;;;;;;;6.15;3.50;;;;;;;4.96;69.51;99540.78;4142809;28;20237;-47
2021/12/20 09:01:25;;;;;;;5.50;4.32;;;;;;;4.92;69.51;99539.47;4158824;28;20658;-47
2021/12/20 09:03:28;;;;;;;12.48;4.90;;;;;;;4.98;69.70;99539.56;4157990;28;20206;-47
2021/12/20 09:05:31;;;;;;;8.77;4.53;;;;;;;4.97;69.40;99543.31;4143454;28;20626;-46
2021/12/20 09:07:33;;;;;;;6.78;4.25;;;;;;;5.00;69.55;99542.94;4143095;28;20209;-47
2021/12/20 09:09:38;;;;;;;15.25;4.20;;;;;;;5.05;68.90;99543.19;4159720;28;20209;-47
2021/12/20 09:11:40;;;;;;;5.28;4.68;;;;;;;5.00;69.34;99536.69;4142854;28;20281;-46
2021/12/20 09:13:45;;;;;;;6.22;3.35;;;;;;;5.02;69.51;99540.88;4127483;28;20297;-48
2021/12/20 09:15:47;;;;;;;9.73;4.28;;;;;;;5.02;69.78;99540.88;4144457;28;20765;-46
2021/12/20 09:17:52;;;;;;;17.17;4.55;;;;;;;5.10;69.22;99548.91;4143924;28;20268;-47
2021/12/20 09:19:54;;;;;;;10.40;3.80;;;;;;;5.07;69.56;99543.84;4177130;28;20642;-48
2021/12/20 09:21:56;;;;;;;7.45;4.32;;;;;;;5.14;68.86;99561.03;4159666;28;20674;-46
2021/12/20 09:23:57;;;;;;;9.23;3.95;;;;;;;5.18;69.36;99554.22;4142725;28;20218;-47
2021/12/20 09:26:00;;;;;;;9.77;3.65;;;;;;;5.18;69.33;99552.34;4160318;28;20784;-48
2021/12/20 09:28:04;;;;;;;9.07;4.78;;;;;;;5.18;68.26;99557.78;4139292;28;20291;-47
2021/12/20 09:30:06;;;;;;;14.57;4.07;;;;;;;5.26;67.88;99565.81;4160219;28;21001;-46
2021/12/20 09:32:08;;;;;;;12.45;3.10;;;;;;;5.17;66.54;99566.09;4161205;28;20207;-46
2021/12/20 09:34:10;;;;;;;5.50;3.42;;;;;;;5.10;66.55;99560.59;4140063;28;20237;-47
2021/12/20 09:36:12;;;;;;;5.25;3.80;;;;;;;5.16;66.67;99564.44;4144755;28;20229;-47
2021/12/20 09:38:17;;;;;;;11.15;3.63;;;;;;;5.18;66.22;99567.78;4174205;28;20295;-48
2021/12/20 09:40:51;;;;;;;12.98;3.92;;;;;;;5.25;65.78;99574.13;4171604;28;20635;-48
2021/12/20 09:42:51;;;;;;;11.23;2.92;;;;;;;5.27;66.11;99566.63;4158110;28;20240;-46
2021/12/20 09:44:55;;;;;;;5.60;2.55;;;;;;;5.30;65.39;99572.50;4158603;28;20645;-47
2021/12/20 09:46:58;;;;;;;12.68;4.13;;;;;;;5.36;65.35;99563.63;4154075;28;20216;-48
2021/12/20 09:49:03;;;;;;;7.93;2.30;;;;;;;5.30;64.70;99571.69;4143458;28;20229;-46
2021/12/20 09:51:06;;;;;;;4.47;2.42;;;;;;;5.34;65.16;99579.25;4172344;28;20641;-47
2021/12/20 09:53:08;;;;;;;10.57;3.28;;;;;;;5.38;64.77;99571.56;4137920;28;20206;-48